createdAt,value
2018-09-27T00:01:20.566Z,76.40
2018-09-27T00:03:55.312Z,76.60
2018-09-27T00:06:29.702Z,76.30
2018-09-27T00:09:04.683Z,75.90
2018-09-27T00:11:39.204Z,75.90
2018-09-27T00:14:13.923Z,75.70
2018-09-27T00:16:48.554Z,75.70
2018-09-27T00:19:23.168Z,76.20
2018-09-27T00:21:57.636Z,75.70
2018-09-27T00:24:32.204Z,75.80
2018-09-27T00:27:06.767Z,76.40
2018-09-27T00:29:41.641Z,76.10
2018-09-27T00:32:16.667Z,76.10
2018-09-27T00:34:51.083Z,76.10
2018-09-27T00:37:25.751Z,75.90
2018-09-27T00:40:00.341Z,75.80
2018-09-27T00:42:35.300Z,75.80
2018-09-27T00:45:09.872Z,76.30
2018-09-27T00:47:44.669Z,76.00
2018-09-27T00:50:19.677Z,76.10
2018-09-27T00:52:54.437Z,76.10
2018-09-27T00:55:29.316Z,76.70
2018-09-27T00:58:04.028Z,77.00
2018-09-27T01:00:39.067Z,76.70
2018-09-27T01:03:13.668Z,76.00
2018-09-27T01:05:48.418Z,76.60
2018-09-27T01:08:23.152Z,76.60
2018-09-27T01:10:57.693Z,77.40
2018-09-27T01:13:32.304Z,76.80
2018-09-27T01:16:07.200Z,77.30
2018-09-27T01:18:41.627Z,78.00
2018-09-27T01:21:16.138Z,78.50
2018-09-27T01:23:50.994Z,78.00
2018-09-27T01:26:26.207Z,77.50
2018-09-27T01:29:01.093Z,76.50
2018-09-27T01:31:36.133Z,76.40
2018-09-27T01:34:10.940Z,76.30
2018-09-27T01:36:45.943Z,76.50
2018-09-27T01:39:20.546Z,76.70
2018-09-27T01:41:55.090Z,76.70
2018-09-27T01:44:29.781Z,76.10
2018-09-27T01:47:04.429Z,76.40
2018-09-27T01:49:39.250Z,76.90
2018-09-27T01:52:14.081Z,76.30
2018-09-27T01:54:48.696Z,76.40
2018-09-27T01:57:23.401Z,77.00
2018-09-27T01:59:58.329Z,77.30
2018-09-27T02:02:33.187Z,76.80
2018-09-27T02:05:07.969Z,76.70
2018-09-27T02:07:42.831Z,76.90
2018-09-27T02:10:17.715Z,76.60
2018-09-27T02:12:52.381Z,76.20
2018-09-27T02:15:28.238Z,75.60
2018-09-27T02:18:03.001Z,76.10
2018-09-27T02:20:38.528Z,76.20
2018-09-27T02:23:13.297Z,76.00
2018-09-27T02:25:47.928Z,75.80
2018-09-27T02:28:22.788Z,75.50
2018-09-27T02:30:57.686Z,75.40
2018-09-27T02:33:32.590Z,75.80
2018-09-27T02:36:07.199Z,75.60
2018-09-27T02:38:42.130Z,75.50
2018-09-27T02:41:16.789Z,75.70
2018-09-27T02:43:51.571Z,75.40
2018-09-27T02:46:27.329Z,75.50
2018-09-27T02:49:02.158Z,75.70
2018-09-27T02:51:37.106Z,76.50
2018-09-27T02:54:11.806Z,77.30
2018-09-27T02:56:46.540Z,77.30
2018-09-27T02:59:21.135Z,76.70
2018-09-27T03:01:55.678Z,76.70
2018-09-27T03:04:30.469Z,76.90
2018-09-27T03:07:05.197Z,76.60
2018-09-27T03:09:40.477Z,76.70
2018-09-27T03:12:15.071Z,76.90
2018-09-27T03:14:49.833Z,77.10
2018-09-27T03:17:24.437Z,76.80
2018-09-27T03:19:59.402Z,76.90
2018-09-27T03:22:34.777Z,77.70
2018-09-27T03:25:09.619Z,78.30
2018-09-27T03:27:44.285Z,77.30
2018-09-27T03:30:19.196Z,77.10
2018-09-27T03:35:34.286Z,77.00
2018-09-27T03:38:09.002Z,77.30
2018-09-27T03:40:44.011Z,77.30
2018-09-27T03:43:18.825Z,77.10
2018-09-27T03:45:53.580Z,76.90
2018-09-27T03:48:28.347Z,76.60
2018-09-27T03:51:03.121Z,76.60
2018-09-27T03:53:37.999Z,77.30
2018-09-27T03:56:13.062Z,77.10
2018-09-27T03:58:47.854Z,76.80
2018-09-27T04:01:22.607Z,76.70
2018-09-27T04:03:57.433Z,76.60
2018-09-27T04:06:32.336Z,76.90
2018-09-27T04:09:08.368Z,77.90
2018-09-27T04:11:43.144Z,78.50
2018-09-27T04:14:17.791Z,78.90
2018-09-27T04:16:52.570Z,78.60
2018-09-27T04:19:27.299Z,78.10
2018-09-27T04:22:02.004Z,78.00
2018-09-27T04:24:36.847Z,78.00
2018-09-27T04:27:11.451Z,77.90
2018-09-27T04:29:46.365Z,78.10
2018-09-27T04:32:21.067Z,77.50
2018-09-27T04:34:56.951Z,78.30
2018-09-27T04:37:33.697Z,78.30
2018-09-27T04:40:08.215Z,78.00
2018-09-27T04:42:42.943Z,78.60
2018-09-27T04:45:18.231Z,79.10
2018-09-27T04:47:54.244Z,79.10
2018-09-27T04:50:28.884Z,78.90
2018-09-27T04:53:03.858Z,78.30
2018-09-27T04:55:38.665Z,77.50
2018-09-27T04:58:13.364Z,77.00
2018-09-27T05:00:48.076Z,77.50
2018-09-27T05:03:22.969Z,76.60
2018-09-27T05:05:57.768Z,76.60
2018-09-27T05:08:32.355Z,76.60
2018-09-27T05:11:07.088Z,76.60
2018-09-27T05:13:41.988Z,76.70
2018-09-27T05:16:16.908Z,76.60
2018-09-27T05:18:51.724Z,76.80
2018-09-27T05:21:26.422Z,76.90
2018-09-27T05:24:01.176Z,77.10
2018-09-27T05:26:35.941Z,77.80
2018-09-27T05:29:10.957Z,78.10
2018-09-27T05:31:45.691Z,78.30
2018-09-27T05:34:21.266Z,78.20
2018-09-27T05:36:56.217Z,78.00
2018-09-27T05:39:31.017Z,78.10
2018-09-27T05:42:05.848Z,78.90
2018-09-27T05:44:40.492Z,79.00
2018-09-27T05:47:15.444Z,80.10
2018-09-27T05:49:50.135Z,79.30
2018-09-27T05:52:25.017Z,79.10
2018-09-27T05:54:59.868Z,79.10
2018-09-27T05:57:34.561Z,79.10
2018-09-27T06:00:09.283Z,79.30
2018-09-27T06:02:44.039Z,79.50
2018-09-27T06:05:18.816Z,79.40
2018-09-27T06:07:53.695Z,79.50
2018-09-27T06:10:28.510Z,79.50
2018-09-27T06:13:03.370Z,79.50
2018-09-27T06:15:38.264Z,79.50
2018-09-27T06:18:13.417Z,79.60
2018-09-27T06:20:48.596Z,79.60
2018-09-27T06:23:23.516Z,79.90
2018-09-27T06:25:58.437Z,80.10
2018-09-27T06:28:33.270Z,80.10
2018-09-27T06:31:08.410Z,80.10
2018-09-27T06:33:43.194Z,80.20
2018-09-27T06:36:18.035Z,80.80
2018-09-27T06:38:52.816Z,81.10
2018-09-27T06:41:27.702Z,81.00
2018-09-27T06:44:02.555Z,81.50
2018-09-27T06:46:37.172Z,81.80
2018-09-27T06:49:12.079Z,82.30
2018-09-27T06:51:46.991Z,81.60
2018-09-27T06:54:21.819Z,80.50
2018-09-27T06:56:56.663Z,80.90
2018-09-27T06:59:31.481Z,79.70
2018-09-27T07:02:07.159Z,79.50
2018-09-27T07:04:41.987Z,78.30
2018-09-27T07:07:16.758Z,78.20
2018-09-27T07:09:51.454Z,79.00
2018-09-27T07:12:26.491Z,81.00
2018-09-27T07:15:01.053Z,81.40
2018-09-27T07:17:35.659Z,81.50
2018-09-27T07:20:10.483Z,80.90
2018-09-27T07:22:45.321Z,80.50
2018-09-27T07:25:20.193Z,79.40
2018-09-27T07:27:55.208Z,79.30
2018-09-27T07:30:30.103Z,78.60
2018-09-27T07:33:04.622Z,78.20
2018-09-27T07:35:39.241Z,77.80
2018-09-27T07:38:13.764Z,77.30
2018-09-27T07:40:48.110Z,77.30
2018-09-27T07:43:22.443Z,76.40
2018-09-27T07:45:57.373Z,76.50
2018-09-27T07:48:32.139Z,76.00
2018-09-27T07:51:06.541Z,75.20
2018-09-27T07:53:41.061Z,74.80
2018-09-27T07:56:15.468Z,75.10
2018-09-27T07:58:49.843Z,73.10
2018-09-27T08:01:24.444Z,72.90
2018-09-27T08:03:58.941Z,72.70
2018-09-27T08:06:33.451Z,72.00
2018-09-27T08:09:08.767Z,71.50
2018-09-27T08:11:43.153Z,71.00
2018-09-27T08:14:17.568Z,69.50
2018-09-27T08:16:52.096Z,69.70
2018-09-27T08:19:26.634Z,68.60
2018-09-27T08:22:01.304Z,69.80
2018-09-27T08:24:35.903Z,68.70
2018-09-27T08:27:10.270Z,68.70
2018-09-27T08:29:44.876Z,69.00
2018-09-27T08:32:19.425Z,69.00
2018-09-27T08:34:53.844Z,68.30
2018-09-27T08:37:28.227Z,68.30
2018-09-27T08:40:02.614Z,67.20
2018-09-27T08:42:37.155Z,67.10
2018-09-27T08:45:11.930Z,66.40
2018-09-27T08:47:46.350Z,64.70
2018-09-27T08:50:20.863Z,65.50
2018-09-27T08:52:55.323Z,64.60
2018-09-27T08:55:29.984Z,63.90
2018-09-27T08:58:04.352Z,62.30
2018-09-27T09:00:38.758Z,61.70
2018-09-27T09:03:13.443Z,61.70
2018-09-27T09:05:48.067Z,62.00
2018-09-27T09:08:22.624Z,61.90
2018-09-27T09:10:57.382Z,60.30
2018-09-27T09:13:31.791Z,59.50
2018-09-27T09:16:06.544Z,60.20
2018-09-27T09:18:40.914Z,60.60
2018-09-27T09:21:15.231Z,60.80
2018-09-27T09:23:49.563Z,59.90
2018-09-27T09:26:24.106Z,59.30
2018-09-27T09:28:58.566Z,58.60
2018-09-27T09:31:33.091Z,57.80
2018-09-27T09:34:07.643Z,58.00
2018-09-27T09:36:42.043Z,56.90
2018-09-27T09:39:16.658Z,57.70
2018-09-27T09:41:51.200Z,54.80
2018-09-27T09:44:25.824Z,53.60
2018-09-27T09:47:00.312Z,54.50
2018-09-27T09:49:34.778Z,54.50
2018-09-27T09:52:09.252Z,54.00
2018-09-27T09:54:43.734Z,53.80
2018-09-27T09:57:18.386Z,52.80
2018-09-27T09:59:52.883Z,52.00
2018-09-27T10:02:28.383Z,52.50
2018-09-27T10:05:02.843Z,50.20
2018-09-27T10:07:37.370Z,49.90
2018-09-27T10:10:11.775Z,47.30
2018-09-27T10:12:46.118Z,49.30
2018-09-27T10:15:20.483Z,50.20
2018-09-27T10:17:55.039Z,49.60
2018-09-27T10:20:29.483Z,50.30
2018-09-27T10:23:04.068Z,49.00
2018-09-27T10:25:38.592Z,47.40
2018-09-27T10:28:14.242Z,47.70
2018-09-27T10:30:48.791Z,48.90
2018-09-27T10:33:23.177Z,49.90
2018-09-27T10:35:57.748Z,50.00
2018-09-27T10:38:32.187Z,49.20
2018-09-27T10:41:06.944Z,49.70
2018-09-27T10:43:41.489Z,48.40
2018-09-27T10:46:16.083Z,49.00
2018-09-27T10:48:50.483Z,48.40
2018-09-27T10:51:24.873Z,47.30
2018-09-27T10:53:59.228Z,46.00
2018-09-27T10:56:33.507Z,46.10
2018-09-27T10:59:07.936Z,47.00
2018-09-27T11:01:42.279Z,46.30
2018-09-27T11:04:16.700Z,46.00
2018-09-27T11:06:51.027Z,44.50
2018-09-27T11:09:25.372Z,43.40
2018-09-27T11:11:59.920Z,45.20
2018-09-27T11:14:34.327Z,44.30
2018-09-27T11:17:08.691Z,41.90
2018-09-27T11:19:43.122Z,42.70
2018-09-27T11:22:17.506Z,42.20
2018-09-27T11:24:51.927Z,42.20
2018-09-27T11:27:26.370Z,43.40
2018-09-27T11:30:06.031Z,42.30
2018-09-27T11:32:43.318Z,42.80
2018-09-27T11:35:17.869Z,41.80
2018-09-27T11:37:52.291Z,40.50
2018-09-27T11:40:26.683Z,43.60
2018-09-27T11:43:01.088Z,39.50
2018-09-27T11:45:35.601Z,40.00
2018-09-27T11:48:09.941Z,39.80
2018-09-27T11:50:44.556Z,39.80
2018-09-27T11:53:18.936Z,41.10
2018-09-27T11:55:54.270Z,39.60
2018-09-27T11:58:28.784Z,38.90
2018-09-27T12:01:03.260Z,39.50
2018-09-27T12:03:37.700Z,40.10
2018-09-27T12:06:12.207Z,40.20
2018-09-27T12:08:46.609Z,41.00
2018-09-27T12:11:21.084Z,41.50
2018-09-27T12:13:55.450Z,42.40
2018-09-27T12:16:29.837Z,41.90
2018-09-27T12:19:04.172Z,42.60
2018-09-27T12:21:38.726Z,41.00
2018-09-27T12:24:13.273Z,41.30
2018-09-27T12:26:47.839Z,41.00
2018-09-27T12:29:22.352Z,42.90
2018-09-27T12:31:56.855Z,42.50
2018-09-27T12:34:31.394Z,42.70
2018-09-27T12:37:06.022Z,42.70
2018-09-27T12:39:40.512Z,42.60
2018-09-27T12:42:14.933Z,43.00
2018-09-27T12:44:49.185Z,43.10
2018-09-27T12:47:23.551Z,42.40
2018-09-27T12:49:57.928Z,43.10
2018-09-27T12:52:32.304Z,43.20
2018-09-27T12:55:06.761Z,43.60
2018-09-27T12:57:41.120Z,43.00
2018-09-27T13:00:15.608Z,44.30
2018-09-27T13:02:50.204Z,44.40
2018-09-27T13:05:24.688Z,45.00
2018-09-27T13:07:59.239Z,45.00
2018-09-27T13:10:33.672Z,44.60
2018-09-27T13:13:08.053Z,44.60
2018-09-27T13:15:42.579Z,44.20
2018-09-27T13:18:16.935Z,44.40
2018-09-27T13:20:51.380Z,45.50
2018-09-27T13:23:26.096Z,45.10
2018-09-27T13:26:00.603Z,46.40
2018-09-27T13:28:35.197Z,45.10
2018-09-27T13:31:09.797Z,46.30
2018-09-27T13:33:44.071Z,45.10
2018-09-27T13:36:18.434Z,45.20
2018-09-27T13:38:53.142Z,44.40
2018-09-27T13:41:28.528Z,42.90
2018-09-27T13:44:02.980Z,43.70
2018-09-27T13:46:37.760Z,43.50
2018-09-27T13:49:12.397Z,43.60
2018-09-27T13:51:47.041Z,42.70
2018-09-27T13:54:21.680Z,42.00
2018-09-27T13:56:56.225Z,40.90
2018-09-27T13:59:30.682Z,41.10
2018-09-27T14:02:05.152Z,41.90
2018-09-27T14:04:39.526Z,41.60
2018-09-27T14:07:13.854Z,41.30
2018-09-27T14:09:48.221Z,41.80
2018-09-27T14:12:22.775Z,42.50
2018-09-27T14:14:57.164Z,42.20
2018-09-27T14:17:31.635Z,41.80
2018-09-27T14:20:07.081Z,43.00
2018-09-27T14:22:41.420Z,43.60
2018-09-27T14:25:15.864Z,43.50
2018-09-27T14:27:50.120Z,43.50
2018-09-27T14:30:24.545Z,43.80
2018-09-27T14:32:58.905Z,42.20
2018-09-27T14:35:33.235Z,40.40
2018-09-27T14:38:07.600Z,41.10
2018-09-27T14:40:41.939Z,41.10
2018-09-27T14:43:16.234Z,41.00
2018-09-27T14:45:51.640Z,39.40
2018-09-27T14:48:26.131Z,40.20
2018-09-27T14:51:01.363Z,39.90
2018-09-27T14:53:35.785Z,40.70
2018-09-27T14:56:10.182Z,40.60
2018-09-27T14:58:44.747Z,40.90
2018-09-27T15:01:19.224Z,41.20
2018-09-27T15:03:53.833Z,41.50
2018-09-27T15:06:28.290Z,42.10
2018-09-27T15:09:02.617Z,42.70
2018-09-27T15:11:36.979Z,42.70
2018-09-27T15:14:11.364Z,42.80
2018-09-27T15:16:45.928Z,43.30
2018-09-27T15:19:20.307Z,42.90
2018-09-27T15:21:54.586Z,42.90
2018-09-27T15:24:29.101Z,42.90
2018-09-27T15:27:03.512Z,43.40
2018-09-27T15:29:37.944Z,42.70
2018-09-27T15:32:12.367Z,42.10
2018-09-27T15:34:46.779Z,42.50
2018-09-27T15:37:21.196Z,42.20
2018-09-27T15:39:55.639Z,43.00
2018-09-27T15:42:30.028Z,42.90
2018-09-27T15:45:04.460Z,43.50
2018-09-27T15:47:38.883Z,42.50
2018-09-27T15:50:13.408Z,42.80
2018-09-27T15:52:47.728Z,42.60
2018-09-27T15:55:21.995Z,42.70
2018-09-27T15:57:56.620Z,43.10
2018-09-27T16:00:31.001Z,43.00
2018-09-27T16:03:05.321Z,42.30
2018-09-27T16:05:39.634Z,43.20
2018-09-27T16:08:14.031Z,42.60
2018-09-27T16:10:48.359Z,43.70
2018-09-27T16:13:22.761Z,43.80
2018-09-27T16:15:57.312Z,43.80
2018-09-27T16:18:31.612Z,44.10
2018-09-27T16:21:06.141Z,44.40
2018-09-27T16:23:40.760Z,44.80
2018-09-27T16:26:15.057Z,44.90
2018-09-27T16:28:49.604Z,45.60
2018-09-27T16:31:24.136Z,45.40
2018-09-27T16:33:58.591Z,45.50
2018-09-27T16:36:33.539Z,45.80
2018-09-27T16:39:09.279Z,46.20
2018-09-27T16:41:43.827Z,46.30
2018-09-27T16:44:18.275Z,47.10
2018-09-27T16:46:53.632Z,47.30
2018-09-27T16:49:28.129Z,47.50
2018-09-27T16:52:02.475Z,48.20
2018-09-27T16:54:37.021Z,48.60
2018-09-27T16:57:11.592Z,49.00
2018-09-27T16:59:46.170Z,49.50
2018-09-27T17:02:20.481Z,50.30
2018-09-27T17:04:54.962Z,50.60
2018-09-27T17:07:29.304Z,50.90
2018-09-27T17:10:03.760Z,51.40
2018-09-27T17:12:39.088Z,51.70
2018-09-27T17:15:13.501Z,52.00
2018-09-27T17:17:47.892Z,52.60
2018-09-27T17:20:22.296Z,53.10
2018-09-27T17:22:56.735Z,53.30
2018-09-27T17:25:31.148Z,53.90
2018-09-27T17:28:05.472Z,54.50
2018-09-27T17:30:39.875Z,55.10
2018-09-27T17:33:14.339Z,55.50
2018-09-27T17:35:48.771Z,56.10
2018-09-27T17:38:23.234Z,57.20
2018-09-27T17:40:57.671Z,57.40
2018-09-27T17:43:32.202Z,57.80
2018-09-27T17:46:06.699Z,58.40
2018-09-27T17:48:41.043Z,58.90
2018-09-27T17:51:15.440Z,59.40
2018-09-27T17:53:49.712Z,60.10
2018-09-27T17:56:24.132Z,59.90
2018-09-27T17:58:58.805Z,60.40
2018-09-27T18:01:33.271Z,61.00
2018-09-27T18:04:07.659Z,61.10
2018-09-27T18:06:42.060Z,61.80
2018-09-27T18:09:16.494Z,62.30
2018-09-27T18:11:50.899Z,62.60
2018-09-27T18:14:25.236Z,63.00
2018-09-27T18:16:59.504Z,63.20
2018-09-27T18:19:33.780Z,63.30
2018-09-27T18:22:08.160Z,63.70
2018-09-27T18:24:42.717Z,63.90
2018-09-27T18:27:16.983Z,64.00
2018-09-27T18:29:51.336Z,64.30
2018-09-27T18:32:25.640Z,64.40
2018-09-27T18:35:01.032Z,64.60
2018-09-27T18:37:35.409Z,65.10
2018-09-27T18:40:09.800Z,65.20
2018-09-27T18:42:44.092Z,65.70
2018-09-27T18:45:18.479Z,65.70
2018-09-27T18:47:52.970Z,65.60
2018-09-27T18:50:27.308Z,65.70
2018-09-27T18:53:01.735Z,65.90
2018-09-27T18:55:36.043Z,66.40
2018-09-27T18:58:10.527Z,66.60
2018-09-27T19:00:45.994Z,66.90
2018-09-27T19:03:20.388Z,67.70
2018-09-27T19:05:54.881Z,68.50
2018-09-27T19:08:29.367Z,68.90
2018-09-27T19:11:03.906Z,69.70
2018-09-27T19:13:39.417Z,70.20
2018-09-27T19:16:13.905Z,70.40
2018-09-27T19:18:48.189Z,70.30
2018-09-27T19:21:22.765Z,70.20
2018-09-27T19:23:58.313Z,70.20
2018-09-27T19:26:32.688Z,70.10
2018-09-27T19:29:07.109Z,71.00
2018-09-27T19:31:41.520Z,71.70
2018-09-27T19:34:15.843Z,72.70
2018-09-27T19:36:50.263Z,73.50
2018-09-27T19:39:24.753Z,74.20
2018-09-27T19:41:59.107Z,73.80
2018-09-27T19:44:33.447Z,73.00
2018-09-27T19:47:07.838Z,72.50
2018-09-27T19:49:42.210Z,71.90
2018-09-27T19:52:16.689Z,71.70
2018-09-27T19:54:50.902Z,71.40
2018-09-27T19:57:25.415Z,71.00
2018-09-27T19:59:59.940Z,70.70
2018-09-27T20:02:34.433Z,71.20
2018-09-27T20:05:08.724Z,71.40
2018-09-27T20:07:43.022Z,71.40
2018-09-27T20:10:17.435Z,71.40
2018-09-27T20:12:51.686Z,71.10
2018-09-27T20:15:25.975Z,71.90
2018-09-27T20:18:00.615Z,72.10
2018-09-27T20:20:36.103Z,72.30
2018-09-27T20:23:10.605Z,72.10
2018-09-27T20:25:45.003Z,72.20
2018-09-27T20:28:19.464Z,72.60
2018-09-27T20:30:53.755Z,73.50
2018-09-27T20:33:28.107Z,73.10
2018-09-27T20:36:02.419Z,73.60
2018-09-27T20:38:36.780Z,72.80
2018-09-27T20:41:11.176Z,73.10
2018-09-27T20:43:45.699Z,72.90
2018-09-27T20:46:20.275Z,73.00
2018-09-27T20:48:56.679Z,72.50
2018-09-27T20:51:31.119Z,73.40
2018-09-27T20:54:05.709Z,73.50
2018-09-27T20:56:40.048Z,73.50
2018-09-27T20:59:14.499Z,73.70
2018-09-27T21:01:48.968Z,73.40
2018-09-27T21:04:23.384Z,73.00
2018-09-27T21:06:57.815Z,73.00
2018-09-27T21:09:32.380Z,72.90
2018-09-27T21:12:06.844Z,72.60
2018-09-27T21:14:41.327Z,72.50
2018-09-27T21:17:15.648Z,72.70
2018-09-27T21:19:50.228Z,73.60
2018-09-27T21:22:24.776Z,73.80
2018-09-27T21:24:59.221Z,73.90
2018-09-27T21:27:33.592Z,74.20
2018-09-27T21:30:07.952Z,74.20
2018-09-27T21:32:42.400Z,73.70
2018-09-27T21:35:16.796Z,73.70
2018-09-27T21:37:51.298Z,73.40
2018-09-27T21:40:25.615Z,73.50
2018-09-27T21:42:59.966Z,73.50
2018-09-27T21:45:34.347Z,73.60
2018-09-27T21:48:08.714Z,73.60
2018-09-27T21:50:42.996Z,74.10
2018-09-27T21:53:17.466Z,74.50
2018-09-27T21:55:51.807Z,74.80
2018-09-27T21:58:26.224Z,74.70
2018-09-27T22:01:00.627Z,74.30
2018-09-27T22:03:35.083Z,74.30
2018-09-27T22:06:09.611Z,74.30
2018-09-27T22:08:44.105Z,74.20
2018-09-27T22:11:18.567Z,74.20
2018-09-27T22:13:52.916Z,74.20
2018-09-27T22:16:27.224Z,73.90
2018-09-27T22:19:01.571Z,73.80
2018-09-27T22:21:36.031Z,74.20
2018-09-27T22:24:10.423Z,74.80
2018-09-27T22:26:44.773Z,75.00
2018-09-27T22:29:19.092Z,74.80
2018-09-27T22:31:53.463Z,74.80
2018-09-27T22:34:27.747Z,74.80
2018-09-27T22:37:02.103Z,74.70
2018-09-27T22:39:36.472Z,75.40
2018-09-27T22:42:10.900Z,75.30
2018-09-27T22:44:45.334Z,75.60
2018-09-27T22:47:19.648Z,75.30
2018-09-27T22:49:54.112Z,75.40
2018-09-27T22:52:28.530Z,75.50
2018-09-27T22:55:02.948Z,76.00
2018-09-27T22:57:37.306Z,74.80
2018-09-27T23:00:11.710Z,74.10
2018-09-27T23:02:45.960Z,74.40
2018-09-27T23:05:20.208Z,74.70
2018-09-27T23:07:54.795Z,75.20
2018-09-27T23:10:29.191Z,75.30
2018-09-27T23:13:03.488Z,75.00
2018-09-27T23:15:37.903Z,74.70
2018-09-27T23:18:12.211Z,75.00
2018-09-27T23:20:46.637Z,75.40
2018-09-27T23:23:21.040Z,75.10
2018-09-27T23:25:55.477Z,74.60
2018-09-27T23:28:29.772Z,74.60
2018-09-27T23:31:04.166Z,74.60
2018-09-27T23:33:38.603Z,74.80
2018-09-27T23:36:13.159Z,75.50
2018-09-27T23:38:47.565Z,75.00
2018-09-27T23:41:22.003Z,75.10
2018-09-27T23:43:56.256Z,74.90
2018-09-27T23:46:30.744Z,74.80
2018-09-27T23:49:05.272Z,75.10
2018-09-27T23:51:39.581Z,74.80
2018-09-27T23:54:14.090Z,75.00
2018-09-27T23:56:48.396Z,74.60
2018-09-27T23:59:22.855Z,75.00
